createdAt,value
2018-09-09T00:00:02.544Z,86
2018-09-09T00:05:02.830Z,86.3
2018-09-09T00:10:02.621Z,86.1
2018-09-09T00:15:02.906Z,85.7
2018-09-09T00:20:03.238Z,85.8
2018-09-09T00:25:05.972Z,85.5
2018-09-09T00:30:05.753Z,85.2
2018-09-09T00:35:02.686Z,85.1
2018-09-09T00:40:03.385Z,83.6
2018-09-09T00:45:02.799Z,83.2
2018-09-09T00:50:03.102Z,82.1
2018-09-09T00:55:02.574Z,81.5
2018-09-09T01:00:02.865Z,82
2018-09-09T01:05:03.172Z,82.4
2018-09-09T01:10:03.006Z,82.9
2018-09-09T01:15:03.340Z,83.9
2018-09-09T01:20:07.777Z,86.2
2018-09-09T01:25:02.999Z,86.2
2018-09-09T01:30:03.270Z,86.3
2018-09-09T01:35:02.664Z,86.5
2018-09-09T01:40:05.937Z,84.8
2018-09-09T01:45:02.797Z,84.8
2018-09-09T01:50:02.628Z,84.6
2018-09-09T01:55:02.954Z,85.2
2018-09-09T02:00:03.285Z,85.9
2018-09-09T02:05:02.682Z,87.1
2018-09-09T02:10:03.375Z,88.2
2018-09-09T02:15:02.802Z,89.8
2018-09-09T02:20:03.178Z,89.2
2018-09-09T02:25:02.579Z,89.6
2018-09-09T02:30:02.881Z,89.4
2018-09-09T02:35:03.215Z,90
2018-09-09T02:40:03.024Z,88.9
2018-09-09T02:45:03.481Z,88.9
2018-09-09T02:50:02.732Z,88.9
2018-09-09T02:55:03.073Z,90
2018-09-09T03:00:03.398Z,90.4
2018-09-09T03:05:02.712Z,90.1
2018-09-09T03:10:03.375Z,90.6
2018-09-09T03:15:02.788Z,91.1
2018-09-09T03:20:03.127Z,91
2018-09-09T03:25:03.461Z,90
2018-09-09T03:30:02.806Z,88.4
2018-09-09T03:35:03.132Z,87.8
2018-09-09T03:40:02.867Z,87.7
2018-09-09T03:45:03.187Z,88.3
2018-09-09T03:50:03.484Z,89
2018-09-09T03:55:02.918Z,88
2018-09-09T04:00:03.199Z,87.7
2018-09-09T04:05:02.480Z,87.9
2018-09-09T04:10:08.604Z,88.9
2018-09-09T04:15:02.593Z,89
2018-09-09T04:20:05.585Z,90.7
2018-09-09T04:25:03.301Z,90.7
2018-09-09T04:30:02.608Z,91.1
2018-09-09T04:35:02.993Z,91.5
2018-09-09T04:40:02.714Z,91.9
2018-09-09T04:45:02.949Z,91.5
2018-09-09T04:50:03.415Z,91.4
2018-09-09T04:55:02.669Z,91.3
2018-09-09T05:00:02.977Z,90.9
2018-09-09T05:05:03.361Z,90.7
2018-09-09T05:10:03.105Z,90.7
2018-09-09T05:15:03.497Z,90.8
2018-09-09T05:20:02.775Z,90.4
2018-09-09T05:25:03.054Z,90.1
2018-09-09T05:30:03.318Z,90.2
2018-09-09T05:35:02.702Z,90.3
2018-09-09T05:40:03.421Z,90.6
2018-09-09T05:45:02.787Z,90.6
2018-09-09T05:50:03.058Z,90.6
2018-09-09T05:55:03.459Z,90.6
2018-09-09T06:00:02.798Z,90.2
2018-09-09T06:05:03.133Z,90.2
2018-09-09T06:10:02.988Z,89.2
2018-09-09T06:15:03.405Z,88.9
2018-09-09T06:20:02.743Z,88.2
2018-09-09T06:25:03.065Z,86.7
2018-09-09T06:30:08.013Z,83.5
2018-09-09T06:35:03.181Z,83.5
2018-09-09T06:40:02.932Z,83.2
2018-09-09T06:45:03.245Z,82.5
2018-09-09T06:50:03.096Z,84.3
2018-09-09T06:55:03.555Z,81.9
2018-09-09T07:00:02.854Z,82.1
2018-09-09T07:05:03.399Z,82.7
2018-09-09T07:10:05.611Z,82.9
2018-09-09T07:15:03.450Z,82.9
2018-09-09T07:20:02.812Z,82.8
2018-09-09T07:25:03.142Z,82.8
2018-09-09T07:30:06.056Z,84
2018-09-09T07:35:05.525Z,84.8
2018-09-09T07:40:03.336Z,84.7
2018-09-09T07:45:02.677Z,83.3
2018-09-09T07:50:03.146Z,83.7
2018-09-09T07:55:03.442Z,83.1
2018-09-09T08:00:02.689Z,82.2
2018-09-09T08:05:03.136Z,81.9
2018-09-09T08:10:02.968Z,81.5
2018-09-09T08:15:03.416Z,81.3
2018-09-09T08:20:02.838Z,78.5
2018-09-09T08:25:03.233Z,78.5
2018-09-09T08:30:02.515Z,76.5
2018-09-09T08:35:02.988Z,76.8
2018-09-09T08:40:02.754Z,76.5
2018-09-09T08:45:03.134Z,74.1
2018-09-09T08:50:03.482Z,70.5
2018-09-09T08:55:03.004Z,68.5
2018-09-09T09:00:05.880Z,64.6
2018-09-09T09:05:02.718Z,64.6
2018-09-09T09:10:03.410Z,62
2018-09-09T09:15:02.885Z,59.2
2018-09-09T09:20:03.242Z,59.1
2018-09-09T09:25:02.638Z,58.6
2018-09-09T09:30:08.049Z,56.3
2018-09-09T09:35:03.366Z,56.4
2018-09-09T09:40:03.116Z,55.5
2018-09-09T09:45:02.516Z,55.6
2018-09-09T09:50:07.916Z,52.3
2018-09-09T09:55:05.990Z,52.7
2018-09-09T10:00:10.951Z,51.6
2018-09-09T10:05:02.533Z,51.5
2018-09-09T10:10:03.351Z,49.3
2018-09-09T10:15:05.374Z,47.3
2018-09-09T10:20:13.004Z,47.1
2018-09-09T10:25:28.511Z,47.5
2018-09-09T10:30:08.098Z,47.5
2018-09-09T10:35:03.112Z,47.3
2018-09-09T10:40:05.425Z,46.6
2018-09-09T10:45:08.253Z,46.5
2018-09-09T10:50:02.934Z,46.5
2018-09-09T10:55:08.341Z,46.8
2018-09-09T11:00:05.176Z,45.2
2018-09-09T11:05:02.992Z,45.3
2018-09-09T11:10:02.801Z,45
2018-09-09T11:15:05.741Z,43.4
2018-09-09T11:20:03.117Z,43.4
2018-09-09T11:25:03.563Z,43.1
2018-09-09T11:30:05.477Z,44.2
2018-09-09T11:35:03.325Z,44.2
2018-09-09T11:40:03.368Z,42.7
2018-09-09T11:45:05.218Z,42.3
2018-09-09T11:50:06.098Z,42.1
2018-09-09T11:55:05.505Z,40.8
2018-09-09T12:00:05.450Z,41.8
2018-09-09T12:05:05.834Z,42.3
2018-09-09T12:10:07.751Z,39.6
2018-09-09T12:15:03.067Z,39.6
2018-09-09T12:20:21.227Z,39.4
2018-09-09T12:25:02.919Z,39.3
2018-09-09T12:30:05.916Z,38.4
2018-09-09T12:35:05.339Z,38.5
2018-09-09T12:40:03.191Z,38.4
2018-09-09T12:45:03.526Z,36.8
2018-09-09T12:50:05.466Z,35.1
2018-09-09T12:55:10.880Z,33.2
2018-09-09T13:00:05.740Z,32.5
2018-09-09T13:05:25.571Z,30.8
2018-09-09T13:10:03.439Z,30.8
2018-09-09T13:15:05.444Z,32.9
2018-09-09T13:20:02.945Z,32.7
2018-09-09T13:25:03.458Z,30.7
2018-09-09T13:30:10.683Z,28.8
2018-09-09T13:35:11.060Z,28.7
2018-09-09T13:40:02.878Z,28.6
2018-09-09T13:45:03.333Z,29.2
2018-09-09T13:50:08.369Z,27.5
2018-09-09T13:55:10.397Z,27.1
2018-09-09T14:00:05.462Z,26.6
2018-09-09T14:05:05.920Z,25.5
2018-09-09T14:10:10.405Z,25.3
2018-09-09T14:15:05.865Z,25.5
2018-09-09T14:20:05.262Z,25
2018-09-09T14:25:02.583Z,24.9
2018-09-09T14:30:05.856Z,24.9
2018-09-09T14:35:02.955Z,24.8
2018-09-09T14:40:26.005Z,24.3
2018-09-09T14:45:05.302Z,25.4
2018-09-09T14:50:02.676Z,25.3
2018-09-09T14:55:05.761Z,25.6
2018-09-09T15:00:05.670Z,27.1
2018-09-09T15:05:05.223Z,27.1
2018-09-09T15:10:08.122Z,27.3
2018-09-09T15:15:03.488Z,27.3
2018-09-09T15:20:03.075Z,28.2
2018-09-09T15:25:06.021Z,29.2
2018-09-09T15:30:03.456Z,29.1
2018-09-09T15:35:05.630Z,30.4
2018-09-09T15:40:03.754Z,30.4
2018-09-09T15:45:07.930Z,30.1
2018-09-09T15:50:05.797Z,31.2
2018-09-09T15:55:02.842Z,31.3
2018-09-09T16:00:03.252Z,30.4
2018-09-09T16:05:05.335Z,32.1
2018-09-09T16:10:10.850Z,31.5
2018-09-09T16:15:02.618Z,31.5
2018-09-09T16:20:03.093Z,31.5
2018-09-09T16:25:02.578Z,32
2018-09-09T16:30:03.102Z,31.6
2018-09-09T16:35:03.406Z,32.1
2018-09-09T16:40:13.539Z,32.6
2018-09-09T16:45:02.637Z,32.6
2018-09-09T16:50:03.015Z,32.3
2018-09-09T16:55:03.377Z,33.2
2018-09-09T17:00:05.278Z,33.9
2018-09-09T17:05:08.310Z,34.9
2018-09-09T17:10:03.366Z,34.9
2018-09-09T17:15:03.516Z,39.2
2018-09-09T17:20:02.904Z,38.9
2018-09-09T17:25:08.378Z,42.5
2018-09-09T17:30:07.776Z,43.6
2018-09-09T17:35:05.684Z,45.4
2018-09-09T17:40:08.616Z,47.8
2018-09-09T17:45:02.781Z,47.8
2018-09-09T17:50:03.137Z,49
2018-09-09T17:55:02.552Z,49.8
2018-09-09T18:00:13.178Z,50.8
2018-09-09T18:05:05.921Z,50.3
2018-09-09T18:10:02.752Z,50.3
2018-09-09T18:15:13.181Z,52.9
2018-09-09T18:20:05.144Z,53.8
2018-09-09T18:25:08.157Z,53.2
2018-09-09T18:30:06.035Z,52.8
2018-09-09T18:35:08.375Z,52.7
2018-09-09T18:40:03.264Z,52.7
2018-09-09T18:45:07.851Z,55.8
2018-09-09T18:50:03.256Z,55.8
2018-09-09T18:55:05.103Z,56
2018-09-09T19:00:13.739Z,56.8
2018-09-09T19:05:02.714Z,56.8
2018-09-09T19:10:02.932Z,58
2018-09-09T19:15:03.310Z,59.1
2018-09-09T19:20:02.716Z,60.6
2018-09-09T19:25:03.154Z,61.5
2018-09-09T19:30:05.975Z,63.6
2018-09-09T19:35:05.281Z,64.6
2018-09-09T19:40:05.731Z,65.7
2018-09-09T19:45:05.058Z,67.3
2018-09-09T19:50:03.357Z,67.2
2018-09-09T19:55:05.218Z,67.6
2018-09-09T20:00:02.870Z,67.6
2018-09-09T20:05:05.724Z,68.8
2018-09-09T20:10:03.429Z,68.8
2018-09-09T20:15:08.031Z,69.1
2018-09-09T20:20:11.050Z,70
2018-09-09T20:25:05.324Z,70.7
2018-09-09T20:30:20.484Z,71.7
2018-09-09T20:35:03.075Z,71.7
2018-09-09T20:40:07.937Z,73.6
2018-09-09T20:45:05.718Z,74
2018-09-09T20:50:05.548Z,73.5
2018-09-09T20:55:03.325Z,73.3
2018-09-09T21:00:07.862Z,71.4
2018-09-09T21:05:03.206Z,71.4
2018-09-09T21:10:02.999Z,72.4
2018-09-09T21:15:03.405Z,73.8
2018-09-09T21:20:05.410Z,74.2
2018-09-09T21:25:03.088Z,74.2
2018-09-09T21:30:03.469Z,75.4
2018-09-09T21:35:05.441Z,75.4
2018-09-09T21:40:03.251Z,75.4
2018-09-09T21:45:02.591Z,76
2018-09-09T21:50:02.933Z,77.5
2018-09-09T21:55:05.774Z,79.6
2018-09-09T22:00:03.063Z,79.6
2018-09-09T22:05:03.420Z,80.2
2018-09-09T22:10:08.374Z,80.9
2018-09-09T22:15:05.307Z,82
2018-09-09T22:20:02.730Z,82
2018-09-09T22:25:05.583Z,83.4
2018-09-09T22:30:02.880Z,83.4
2018-09-09T22:35:10.857Z,84.7
2018-09-09T22:40:05.177Z,84.6
2018-09-09T22:45:05.591Z,86.1
2018-09-09T22:50:05.453Z,86.2
2018-09-09T22:55:05.799Z,87
2018-09-09T23:00:08.181Z,88.1
2018-09-09T23:05:03.484Z,88.1
2018-09-09T23:10:03.336Z,88.2
2018-09-09T23:15:05.159Z,89.7
2018-09-09T23:20:06.016Z,90.1
2018-09-09T23:25:02.839Z,90.1
2018-09-09T23:30:05.644Z,90.4
2018-09-09T23:35:03.471Z,90.4
2018-09-09T23:40:18.557Z,90.8
2018-09-09T23:45:07.766Z,91.1
2018-09-09T23:50:05.630Z,91.1
2018-09-09T23:55:05.927Z,91.3
